sensor_id;sensor_type;location;lat;lon;timestamp;P1;durP1;ratioP1;P2;durP2;ratioP2
48813;SDS011;34634;44.108;3.074;2022-07-19T00:00:06;3.40;;;3.10;;
48813;SDS011;34634;44.108;3.074;2022-07-19T00:02:45;3.88;;;2.90;;
48813;SDS011;34634;44.108;3.074;2022-07-19T00:05:13;4.03;;;3.47;;
48813;SDS011;34634;44.108;3.074;2022-07-19T00:07:42;4.47;;;3.33;;
48813;SDS011;34634;44.108;3.074;2022-07-19T00:10:22;3.63;;;3.00;;
48813;SDS011;34634;44.108;3.074;2022-07-19T00:12:51;3.42;;;3.13;;
48813;SDS011;34634;44.108;3.074;2022-07-19T00:15:20;4.35;;;3.40;;
48813;SDS011;34634;44.108;3.074;2022-07-19T00:17:48;4.10;;;2.88;;
48813;SDS011;34634;44.108;3.074;2022-07-19T00:20:18;3.30;;;3.00;;
48813;SDS011;34634;44.108;3.074;2022-07-19T00:22:55;3.47;;;3.17;;
48813;SDS011;34634;44.108;3.074;2022-07-19T00:25:34;4.53;;;3.30;;
48813;SDS011;34634;44.108;3.074;2022-07-19T00:28:03;4.78;;;3.63;;
48813;SDS011;34634;44.108;3.074;2022-07-19T00:30:31;3.22;;;2.80;;
48813;SDS011;34634;44.108;3.074;2022-07-19T00:33:00;3.78;;;3.20;;
48813;SDS011;34634;44.108;3.074;2022-07-19T00:35:40;3.95;;;3.58;;
48813;SDS011;34634;44.108;3.074;2022-07-19T00:38:18;4.72;;;3.28;;
48813;SDS011;34634;44.108;3.074;2022-07-19T00:40:47;4.13;;;3.40;;
48813;SDS011;34634;44.108;3.074;2022-07-19T00:43:16;6.78;;;3.30;;
48813;SDS011;34634;44.108;3.074;2022-07-19T00:45:44;9.30;;;3.90;;
48813;SDS011;34634;44.108;3.074;2022-07-19T00:48:21;5.45;;;3.85;;
48813;SDS011;34634;44.108;3.074;2022-07-19T00:50:50;3.90;;;3.60;;
48813;SDS011;34634;44.108;3.074;2022-07-19T00:53:19;5.03;;;3.67;;
48813;SDS011;34634;44.108;3.074;2022-07-19T00:55:48;4.13;;;3.33;;
48813;SDS011;34634;44.108;3.074;2022-07-19T00:58:17;3.78;;;3.38;;
48813;SDS011;34634;44.108;3.074;2022-07-19T01:00:46;5.70;;;3.65;;
48813;SDS011;34634;44.108;3.074;2022-07-19T01:03:14;4.60;;;3.80;;
48813;SDS011;34634;44.108;3.074;2022-07-19T01:05:44;3.88;;;3.47;;
48813;SDS011;34634;44.108;3.074;2022-07-19T01:08:22;4.82;;;3.65;;
48813;SDS011;34634;44.108;3.074;2022-07-19T01:11:02;7.78;;;3.80;;
48813;SDS011;34634;44.108;3.074;2022-07-19T01:13:32;4.25;;;3.45;;
48813;SDS011;34634;44.108;3.074;2022-07-19T01:16:11;6.93;;;3.60;;
48813;SDS011;34634;44.108;3.074;2022-07-19T01:18:40;4.95;;;4.03;;
48813;SDS011;34634;44.108;3.074;2022-07-19T01:21:13;4.13;;;3.72;;
48813;SDS011;34634;44.108;3.074;2022-07-19T01:23:44;4.10;;;3.70;;
48813;SDS011;34634;44.108;3.074;2022-07-19T01:26:13;4.88;;;3.90;;
48813;SDS011;34634;44.108;3.074;2022-07-19T01:28:42;4.65;;;3.90;;
48813;SDS011;34634;44.108;3.074;2022-07-19T01:31:21;5.40;;;4.05;;
48813;SDS011;34634;44.108;3.074;2022-07-19T01:33:50;4.07;;;3.70;;
48813;SDS011;34634;44.108;3.074;2022-07-19T01:36:19;4.28;;;3.70;;
48813;SDS011;34634;44.108;3.074;2022-07-19T01:38:48;5.38;;;4.07;;
48813;SDS011;34634;44.108;3.074;2022-07-19T01:41:16;5.28;;;3.40;;
48813;SDS011;34634;44.108;3.074;2022-07-19T01:43:53;3.97;;;3.60;;
48813;SDS011;34634;44.108;3.074;2022-07-19T01:46:29;4.00;;;3.60;;
48813;SDS011;34634;44.108;3.074;2022-07-19T01:49:12;6.90;;;4.00;;
48813;SDS011;34634;44.108;3.074;2022-07-19T01:51:50;6.35;;;3.80;;
48813;SDS011;34634;44.108;3.074;2022-07-19T01:54:18;3.85;;;3.50;;
48813;SDS011;34634;44.108;3.074;2022-07-19T01:56:47;3.97;;;3.58;;
48813;SDS011;34634;44.108;3.074;2022-07-19T01:59:16;3.95;;;3.30;;
48813;SDS011;34634;44.108;3.074;2022-07-19T02:01:45;4.00;;;3.33;;
48813;SDS011;34634;44.108;3.074;2022-07-19T02:04:13;6.43;;;3.90;;
48813;SDS011;34634;44.108;3.074;2022-07-19T02:06:42;6.43;;;3.72;;
48813;SDS011;34634;44.108;3.074;2022-07-19T02:09:11;4.72;;;3.40;;
48813;SDS011;34634;44.108;3.074;2022-07-19T02:11:49;4.00;;;3.60;;
48813;SDS011;34634;44.108;3.074;2022-07-19T02:14:18;5.35;;;3.17;;
48813;SDS011;34634;44.108;3.074;2022-07-19T02:16:47;5.38;;;3.88;;
48813;SDS011;34634;44.108;3.074;2022-07-19T02:19:15;3.95;;;3.55;;
48813;SDS011;34634;44.108;3.074;2022-07-19T02:21:44;4.68;;;3.58;;
48813;SDS011;34634;44.108;3.074;2022-07-19T02:24:21;4.63;;;4.03;;
48813;SDS011;34634;44.108;3.074;2022-07-19T02:26:57;4.53;;;3.90;;
48813;SDS011;34634;44.108;3.074;2022-07-19T02:29:34;6.13;;;4.30;;
48813;SDS011;34634;44.108;3.074;2022-07-19T02:32:13;7.75;;;3.67;;
48813;SDS011;34634;44.108;3.074;2022-07-19T02:34:41;4.78;;;3.80;;
48813;SDS011;34634;44.108;3.074;2022-07-19T02:37:10;5.63;;;3.88;;
48813;SDS011;34634;44.108;3.074;2022-07-19T02:39:39;5.65;;;3.22;;
48813;SDS011;34634;44.108;3.074;2022-07-19T02:42:07;3.97;;;3.67;;
48813;SDS011;34634;44.108;3.074;2022-07-19T02:44:46;6.28;;;3.22;;
48813;SDS011;34634;44.108;3.074;2022-07-19T02:47:15;4.38;;;3.90;;
48813;SDS011;34634;44.108;3.074;2022-07-19T02:49:43;4.03;;;3.63;;
48813;SDS011;34634;44.108;3.074;2022-07-19T02:52:12;4.50;;;4.03;;
48813;SDS011;34634;44.108;3.074;2022-07-19T02:54:41;7.10;;;4.05;;
48813;SDS011;34634;44.108;3.074;2022-07-19T02:57:09;6.47;;;4.25;;
48813;SDS011;34634;44.108;3.074;2022-07-19T02:59:48;4.43;;;4.03;;
48813;SDS011;34634;44.108;3.074;2022-07-19T03:02:17;6.90;;;3.90;;
48813;SDS011;34634;44.108;3.074;2022-07-19T03:04:46;5.43;;;4.05;;
48813;SDS011;34634;44.108;3.074;2022-07-19T03:07:14;5.40;;;3.92;;
48813;SDS011;34634;44.108;3.074;2022-07-19T03:09:43;5.18;;;3.85;;
48813;SDS011;34634;44.108;3.074;2022-07-19T03:12:21;6.40;;;4.40;;
48813;SDS011;34634;44.108;3.074;2022-07-19T03:14:50;5.57;;;3.78;;
48813;SDS011;34634;44.108;3.074;2022-07-19T03:17:27;5.85;;;3.60;;
48813;SDS011;34634;44.108;3.074;2022-07-19T03:20:05;4.72;;;3.53;;
48813;SDS011;34634;44.108;3.074;2022-07-19T03:22:43;4.15;;;3.75;;
48813;SDS011;34634;44.108;3.074;2022-07-19T03:25:22;4.15;;;3.75;;
48813;SDS011;34634;44.108;3.074;2022-07-19T03:28:00;4.00;;;3.50;;
48813;SDS011;34634;44.108;3.074;2022-07-19T03:30:28;4.45;;;4.05;;
48813;SDS011;34634;44.108;3.074;2022-07-19T03:32:59;4.88;;;3.80;;
48813;SDS011;34634;44.108;3.074;2022-07-19T03:35:28;9.10;;;4.20;;
48813;SDS011;34634;44.108;3.074;2022-07-19T03:37:56;4.93;;;4.40;;
48813;SDS011;34634;44.108;3.074;2022-07-19T03:40:25;7.28;;;4.18;;
48813;SDS011;34634;44.108;3.074;2022-07-19T03:43:04;9.35;;;3.88;;
48813;SDS011;34634;44.108;3.074;2022-07-19T03:45:33;5.53;;;4.05;;
48813;SDS011;34634;44.108;3.074;2022-07-19T03:48:13;4.45;;;3.90;;
48813;SDS011;34634;44.108;3.074;2022-07-19T03:50:50;4.70;;;4.10;;
48813;SDS011;34634;44.108;3.074;2022-07-19T03:53:29;5.97;;;4.57;;
48813;SDS011;34634;44.108;3.074;2022-07-19T03:55:57;16.20;;;4.43;;
48813;SDS011;34634;44.108;3.074;2022-07-19T03:58:26;4.43;;;4.00;;
48813;SDS011;34634;44.108;3.074;2022-07-19T04:00:55;5.95;;;4.43;;
48813;SDS011;34634;44.108;3.074;2022-07-19T04:03:24;5.80;;;4.10;;
48813;SDS011;34634;44.108;3.074;2022-07-19T04:05:53;5.00;;;3.85;;
48813;SDS011;34634;44.108;3.074;2022-07-19T04:08:22;4.68;;;4.10;;
48813;SDS011;34634;44.108;3.074;2022-07-19T04:11:05;5.75;;;4.35;;
48813;SDS011;34634;44.108;3.074;2022-07-19T04:13:43;5.55;;;4.47;;
48813;SDS011;34634;44.108;3.074;2022-07-19T04:16:12;5.60;;;4.00;;
48813;SDS011;34634;44.108;3.074;2022-07-19T04:18:40;4.57;;;4.10;;
48813;SDS011;34634;44.108;3.074;2022-07-19T04:21:09;6.40;;;4.00;;
48813;SDS011;34634;44.108;3.074;2022-07-19T04:23:38;7.05;;;4.60;;
48813;SDS011;34634;44.108;3.074;2022-07-19T04:26:06;6.68;;;4.53;;
48813;SDS011;34634;44.108;3.074;2022-07-19T04:28:35;5.30;;;4.47;;
48813;SDS011;34634;44.108;3.074;2022-07-19T04:31:12;5.43;;;3.95;;
48813;SDS011;34634;44.108;3.074;2022-07-19T04:33:56;5.47;;;3.92;;
48813;SDS011;34634;44.108;3.074;2022-07-19T04:36:34;6.25;;;4.25;;
48813;SDS011;34634;44.108;3.074;2022-07-19T04:39:02;5.65;;;4.43;;
48813;SDS011;34634;44.108;3.074;2022-07-19T04:41:31;16.23;;;4.85;;
48813;SDS011;34634;44.108;3.074;2022-07-19T04:44:00;9.35;;;4.07;;
48813;SDS011;34634;44.108;3.074;2022-07-19T04:46:28;7.82;;;4.45;;
48813;SDS011;34634;44.108;3.074;2022-07-19T04:48:57;9.98;;;4.50;;
48813;SDS011;34634;44.108;3.074;2022-07-19T04:51:26;5.43;;;4.30;;
48813;SDS011;34634;44.108;3.074;2022-07-19T04:54:04;6.50;;;4.13;;
48813;SDS011;34634;44.108;3.074;2022-07-19T04:56:33;11.10;;;4.22;;
48813;SDS011;34634;44.108;3.074;2022-07-19T04:59:02;8.10;;;4.75;;
48813;SDS011;34634;44.108;3.074;2022-07-19T05:01:31;6.95;;;4.50;;
48813;SDS011;34634;44.108;3.074;2022-07-19T05:04:00;5.57;;;4.18;;
48813;SDS011;34634;44.108;3.074;2022-07-19T05:06:28;4.47;;;4.07;;
48813;SDS011;34634;44.108;3.074;2022-07-19T05:08:57;9.57;;;4.72;;
48813;SDS011;34634;44.108;3.074;2022-07-19T05:11:26;6.80;;;4.15;;
48813;SDS011;34634;44.108;3.074;2022-07-19T05:13:54;8.57;;;4.20;;
48813;SDS011;34634;44.108;3.074;2022-07-19T05:16:31;7.05;;;4.53;;
48813;SDS011;34634;44.108;3.074;2022-07-19T05:19:10;6.80;;;4.57;;
48813;SDS011;34634;44.108;3.074;2022-07-19T05:21:38;8.85;;;4.20;;
48813;SDS011;34634;44.108;3.074;2022-07-19T05:24:07;5.70;;;4.32;;
48813;SDS011;34634;44.108;3.074;2022-07-19T05:26:36;6.80;;;4.50;;
48813;SDS011;34634;44.108;3.074;2022-07-19T05:29:05;10.98;;;4.53;;
48813;SDS011;34634;44.108;3.074;2022-07-19T05:31:34;5.53;;;4.00;;
48813;SDS011;34634;44.108;3.074;2022-07-19T05:34:03;8.30;;;3.92;;
48813;SDS011;34634;44.108;3.074;2022-07-19T05:36:31;4.32;;;3.78;;
48813;SDS011;34634;44.108;3.074;2022-07-19T05:39:00;6.22;;;4.32;;
48813;SDS011;34634;44.108;3.074;2022-07-19T05:41:29;7.32;;;4.20;;
48813;SDS011;34634;44.108;3.074;2022-07-19T05:43:58;5.90;;;4.00;;
48813;SDS011;34634;44.108;3.074;2022-07-19T05:46:26;20.38;;;4.70;;
48813;SDS011;34634;44.108;3.074;2022-07-19T05:48:55;8.80;;;3.80;;
48813;SDS011;34634;44.108;3.074;2022-07-19T05:51:31;11.02;;;4.43;;
48813;SDS011;34634;44.108;3.074;2022-07-19T05:54:00;9.43;;;4.22;;
48813;SDS011;34634;44.108;3.074;2022-07-19T05:56:29;16.13;;;4.35;;
48813;SDS011;34634;44.108;3.074;2022-07-19T05:58:58;13.98;;;4.65;;
48813;SDS011;34634;44.108;3.074;2022-07-19T06:01:29;9.90;;;4.10;;
48813;SDS011;34634;44.108;3.074;2022-07-19T06:03:58;8.48;;;4.13;;
48813;SDS011;34634;44.108;3.074;2022-07-19T06:06:37;7.90;;;4.35;;
48813;SDS011;34634;44.108;3.074;2022-07-19T06:09:06;6.90;;;4.45;;
48813;SDS011;34634;44.108;3.074;2022-07-19T06:11:39;5.88;;;4.07;;
48813;SDS011;34634;44.108;3.074;2022-07-19T06:14:16;9.18;;;3.90;;
48813;SDS011;34634;44.108;3.074;2022-07-19T06:16:45;7.80;;;4.18;;
48813;SDS011;34634;44.108;3.074;2022-07-19T06:19:21;9.90;;;4.20;;
48813;SDS011;34634;44.108;3.074;2022-07-19T06:21:58;33.42;;;9.80;;
48813;SDS011;34634;44.108;3.074;2022-07-19T06:24:34;6.85;;;4.10;;
48813;SDS011;34634;44.108;3.074;2022-07-19T06:27:11;15.30;;;4.20;;
48813;SDS011;34634;44.108;3.074;2022-07-19T06:29:48;13.52;;;4.38;;
48813;SDS011;34634;44.108;3.074;2022-07-19T06:32:16;14.15;;;5.80;;
48813;SDS011;34634;44.108;3.074;2022-07-19T06:34:53;17.27;;;5.50;;
48813;SDS011;34634;44.108;3.074;2022-07-19T06:37:22;5.32;;;3.85;;
48813;SDS011;34634;44.108;3.074;2022-07-19T06:39:51;4.75;;;3.88;;
48813;SDS011;34634;44.108;3.074;2022-07-19T06:42:19;6.22;;;4.22;;
48813;SDS011;34634;44.108;3.074;2022-07-19T06:44:56;7.05;;;3.92;;
48813;SDS011;34634;44.108;3.074;2022-07-19T06:47:38;4.18;;;3.78;;
48813;SDS011;34634;44.108;3.074;2022-07-19T06:50:17;6.75;;;4.15;;
48813;SDS011;34634;44.108;3.074;2022-07-19T06:52:54;5.75;;;4.10;;
48813;SDS011;34634;44.108;3.074;2022-07-19T06:55:31;8.25;;;4.10;;
48813;SDS011;34634;44.108;3.074;2022-07-19T06:58:07;7.47;;;3.90;;
48813;SDS011;34634;44.108;3.074;2022-07-19T07:00:44;8.48;;;3.92;;
48813;SDS011;34634;44.108;3.074;2022-07-19T07:03:13;7.55;;;4.10;;
48813;SDS011;34634;44.108;3.074;2022-07-19T07:05:41;5.63;;;3.70;;
48813;SDS011;34634;44.108;3.074;2022-07-19T07:08:10;5.57;;;3.65;;
48813;SDS011;34634;44.108;3.074;2022-07-19T07:10:39;7.22;;;3.53;;
48813;SDS011;34634;44.108;3.074;2022-07-19T07:13:08;30.02;;;8.23;;
48813;SDS011;34634;44.108;3.074;2022-07-19T07:15:37;8.20;;;4.32;;
48813;SDS011;34634;44.108;3.074;2022-07-19T07:18:06;39.83;;;8.18;;
48813;SDS011;34634;44.108;3.074;2022-07-19T07:20:34;13.10;;;4.85;;
48813;SDS011;34634;44.108;3.074;2022-07-19T07:23:11;28.45;;;7.40;;
48813;SDS011;34634;44.108;3.074;2022-07-19T07:25:40;7.43;;;3.22;;
48813;SDS011;34634;44.108;3.074;2022-07-19T07:28:16;12.13;;;3.30;;
48813;SDS011;34634;44.108;3.074;2022-07-19T07:30:55;9.75;;;3.42;;
48813;SDS011;34634;44.108;3.074;2022-07-19T07:33:24;6.63;;;3.38;;
48813;SDS011;34634;44.108;3.074;2022-07-19T07:35:52;7.10;;;4.13;;
48813;SDS011;34634;44.108;3.074;2022-07-19T07:38:21;7.43;;;3.38;;
48813;SDS011;34634;44.108;3.074;2022-07-19T07:40:50;9.27;;;3.80;;
48813;SDS011;34634;44.108;3.074;2022-07-19T07:43:26;9.45;;;3.38;;
48813;SDS011;34634;44.108;3.074;2022-07-19T07:45:55;4.45;;;3.25;;
48813;SDS011;34634;44.108;3.074;2022-07-19T07:48:24;7.90;;;3.30;;
48813;SDS011;34634;44.108;3.074;2022-07-19T07:51:01;11.15;;;3.30;;
48813;SDS011;34634;44.108;3.074;2022-07-19T07:53:29;7.72;;;3.38;;
48813;SDS011;34634;44.108;3.074;2022-07-19T07:55:58;5.28;;;2.78;;
48813;SDS011;34634;44.108;3.074;2022-07-19T07:58:35;8.95;;;3.20;;
48813;SDS011;34634;44.108;3.074;2022-07-19T08:01:13;10.52;;;3.00;;
48813;SDS011;34634;44.108;3.074;2022-07-19T08:03:53;3.95;;;3.08;;
48813;SDS011;34634;44.108;3.074;2022-07-19T08:06:22;11.43;;;3.17;;
48813;SDS011;34634;44.108;3.074;2022-07-19T08:08:51;12.45;;;2.83;;
48813;SDS011;34634;44.108;3.074;2022-07-19T08:11:20;15.63;;;3.00;;
48813;SDS011;34634;44.108;3.074;2022-07-19T08:13:57;18.88;;;3.08;;
48813;SDS011;34634;44.108;3.074;2022-07-19T08:16:34;6.78;;;2.80;;
48813;SDS011;34634;44.108;3.074;2022-07-19T08:19:11;8.63;;;2.80;;
48813;SDS011;34634;44.108;3.074;2022-07-19T08:21:47;7.65;;;3.30;;
48813;SDS011;34634;44.108;3.074;2022-07-19T08:24:16;5.65;;;2.90;;
48813;SDS011;34634;44.108;3.074;2022-07-19T08:26:45;4.15;;;2.58;;
48813;SDS011;34634;44.108;3.074;2022-07-19T08:29:23;39.80;;;4.22;;
48813;SDS011;34634;44.108;3.074;2022-07-19T08:31:52;7.97;;;2.47;;
48813;SDS011;34634;44.108;3.074;2022-07-19T08:34:21;2.67;;;2.47;;
48813;SDS011;34634;44.108;3.074;2022-07-19T08:36:50;4.15;;;2.78;;
48813;SDS011;34634;44.108;3.074;2022-07-19T08:39:18;5.25;;;2.28;;
48813;SDS011;34634;44.108;3.074;2022-07-19T08:41:47;10.65;;;2.63;;
48813;SDS011;34634;44.108;3.074;2022-07-19T08:44:16;11.13;;;2.85;;
48813;SDS011;34634;44.108;3.074;2022-07-19T08:46:54;28.52;;;3.95;;
48813;SDS011;34634;44.108;3.074;2022-07-19T08:49:23;5.75;;;2.70;;
48813;SDS011;34634;44.108;3.074;2022-07-19T08:51:52;7.38;;;2.40;;
48813;SDS011;34634;44.108;3.074;2022-07-19T08:54:21;60.45;;;4.97;;
48813;SDS011;34634;44.108;3.074;2022-07-19T08:56:50;3.63;;;2.70;;
48813;SDS011;34634;44.108;3.074;2022-07-19T08:59:45;5.22;;;2.47;;
48813;SDS011;34634;44.108;3.074;2022-07-19T09:02:22;6.80;;;2.33;;
48813;SDS011;34634;44.108;3.074;2022-07-19T09:05:01;12.30;;;3.00;;
48813;SDS011;34634;44.108;3.074;2022-07-19T09:07:32;6.18;;;2.45;;
48813;SDS011;34634;44.108;3.074;2022-07-19T09:10:17;10.32;;;2.70;;
48813;SDS011;34634;44.108;3.074;2022-07-19T09:15:36;6.78;;;2.80;;
48813;SDS011;34634;44.108;3.074;2022-07-19T09:18:15;3.85;;;2.50;;
48813;SDS011;34634;44.108;3.074;2022-07-19T09:20:44;6.10;;;2.55;;
48813;SDS011;34634;44.108;3.074;2022-07-19T09:23:13;4.25;;;2.53;;
48813;SDS011;34634;44.108;3.074;2022-07-19T09:25:55;5.72;;;2.50;;
48813;SDS011;34634;44.108;3.074;2022-07-19T09:28:32;4.88;;;2.70;;
48813;SDS011;34634;44.108;3.074;2022-07-19T09:31:10;4.40;;;2.55;;
48813;SDS011;34634;44.108;3.074;2022-07-19T09:33:47;7.78;;;2.45;;
48813;SDS011;34634;44.108;3.074;2022-07-19T09:36:30;4.90;;;2.30;;
48813;SDS011;34634;44.108;3.074;2022-07-19T09:38:59;7.72;;;2.85;;
48813;SDS011;34634;44.108;3.074;2022-07-19T09:41:28;6.22;;;2.42;;
48813;SDS011;34634;44.108;3.074;2022-07-19T09:44:00;5.90;;;2.90;;
48813;SDS011;34634;44.108;3.074;2022-07-19T09:46:42;13.23;;;2.78;;
48813;SDS011;34634;44.108;3.074;2022-07-19T09:49:13;21.95;;;3.08;;
48813;SDS011;34634;44.108;3.074;2022-07-19T09:51:51;7.15;;;3.13;;
48813;SDS011;34634;44.108;3.074;2022-07-19T09:54:29;9.27;;;2.88;;
48813;SDS011;34634;44.108;3.074;2022-07-19T09:56:59;7.03;;;2.35;;
48813;SDS011;34634;44.108;3.074;2022-07-19T09:59:27;7.00;;;2.30;;
48813;SDS011;34634;44.108;3.074;2022-07-19T10:01:56;4.25;;;2.50;;
48813;SDS011;34634;44.108;3.074;2022-07-19T10:04:25;48.95;;;4.80;;
48813;SDS011;34634;44.108;3.074;2022-07-19T10:07:03;3.85;;;2.30;;
48813;SDS011;34634;44.108;3.074;2022-07-19T10:09:32;20.02;;;3.50;;
48813;SDS011;34634;44.108;3.074;2022-07-19T10:12:01;6.57;;;2.65;;
48813;SDS011;34634;44.108;3.074;2022-07-19T10:14:30;11.02;;;3.08;;
48813;SDS011;34634;44.108;3.074;2022-07-19T10:19:33;4.82;;;2.53;;
48813;SDS011;34634;44.108;3.074;2022-07-19T10:22:11;10.27;;;2.70;;
48813;SDS011;34634;44.108;3.074;2022-07-19T10:24:53;5.07;;;2.65;;
48813;SDS011;34634;44.108;3.074;2022-07-19T10:32:50;4.22;;;2.35;;
48813;SDS011;34634;44.108;3.074;2022-07-19T10:35:30;3.85;;;2.40;;
48813;SDS011;34634;44.108;3.074;2022-07-19T10:43:20;9.82;;;2.55;;
48813;SDS011;34634;44.108;3.074;2022-07-19T10:48:40;8.80;;;2.45;;
48813;SDS011;34634;44.108;3.074;2022-07-19T10:51:28;3.70;;;2.22;;
48813;SDS011;34634;44.108;3.074;2022-07-19T10:56:39;15.23;;;2.38;;
48813;SDS011;34634;44.108;3.074;2022-07-19T10:59:09;9.35;;;2.42;;
48813;SDS011;34634;44.108;3.074;2022-07-19T11:01:52;8.07;;;2.40;;
48813;SDS011;34634;44.108;3.074;2022-07-19T11:04:31;6.97;;;2.42;;
48813;SDS011;34634;44.108;3.074;2022-07-19T11:09:47;3.15;;;2.22;;
48813;SDS011;34634;44.108;3.074;2022-07-19T11:12:28;4.28;;;2.20;;
48813;SDS011;34634;44.108;3.074;2022-07-19T11:14:58;6.95;;;2.67;;
48813;SDS011;34634;44.108;3.074;2022-07-19T11:17:35;5.35;;;2.40;;
48813;SDS011;34634;44.108;3.074;2022-07-19T11:20:12;3.92;;;2.75;;
48813;SDS011;34634;44.108;3.074;2022-07-19T11:22:46;4.70;;;2.45;;
48813;SDS011;34634;44.108;3.074;2022-07-19T11:25:16;6.22;;;2.20;;
48813;SDS011;34634;44.108;3.074;2022-07-19T11:27:55;2.55;;;2.17;;
48813;SDS011;34634;44.108;3.074;2022-07-19T11:30:33;4.45;;;2.53;;
48813;SDS011;34634;44.108;3.074;2022-07-19T11:33:11;21.42;;;2.92;;
48813;SDS011;34634;44.108;3.074;2022-07-19T11:35:53;8.00;;;2.72;;
48813;SDS011;34634;44.108;3.074;2022-07-19T11:41:14;8.70;;;2.85;;
48813;SDS011;34634;44.108;3.074;2022-07-19T11:46:25;3.28;;;2.40;;
48813;SDS011;34634;44.108;3.074;2022-07-19T11:48:58;7.95;;;2.90;;
48813;SDS011;34634;44.108;3.074;2022-07-19T11:51:36;7.65;;;2.95;;
48813;SDS011;34634;44.108;3.074;2022-07-19T11:54:05;7.87;;;2.50;;
48813;SDS011;34634;44.108;3.074;2022-07-19T11:56:42;4.03;;;2.42;;
48813;SDS011;34634;44.108;3.074;2022-07-19T11:59:20;4.22;;;2.40;;
48813;SDS011;34634;44.108;3.074;2022-07-19T12:01:51;10.02;;;3.10;;
48813;SDS011;34634;44.108;3.074;2022-07-19T12:04:25;3.78;;;2.58;;
48813;SDS011;34634;44.108;3.074;2022-07-19T12:07:01;2.78;;;2.42;;
48813;SDS011;34634;44.108;3.074;2022-07-19T12:09:30;3.45;;;2.55;;
48813;SDS011;34634;44.108;3.074;2022-07-19T12:12:11;10.63;;;2.60;;
48813;SDS011;34634;44.108;3.074;2022-07-19T12:14:48;3.63;;;2.50;;
48813;SDS011;34634;44.108;3.074;2022-07-19T12:17:20;3.58;;;2.30;;
48813;SDS011;34634;44.108;3.074;2022-07-19T12:19:50;5.43;;;2.60;;
48813;SDS011;34634;44.108;3.074;2022-07-19T12:22:40;6.97;;;2.70;;
48813;SDS011;34634;44.108;3.074;2022-07-19T12:25:34;3.40;;;2.50;;
48813;SDS011;34634;44.108;3.074;2022-07-19T12:28:01;3.03;;;2.53;;
48813;SDS011;34634;44.108;3.074;2022-07-19T12:30:28;5.88;;;2.60;;
48813;SDS011;34634;44.108;3.074;2022-07-19T12:33:04;9.77;;;2.70;;
48813;SDS011;34634;44.108;3.074;2022-07-19T12:35:40;3.65;;;2.40;;
48813;SDS011;34634;44.108;3.074;2022-07-19T12:38:07;4.78;;;2.33;;
48813;SDS011;34634;44.108;3.074;2022-07-19T12:40:37;3.38;;;2.53;;
48813;SDS011;34634;44.108;3.074;2022-07-19T12:43:04;2.60;;;2.42;;
48813;SDS011;34634;44.108;3.074;2022-07-19T12:45:35;4.63;;;2.90;;
48813;SDS011;34634;44.108;3.074;2022-07-19T12:48:05;5.30;;;2.55;;
48813;SDS011;34634;44.108;3.074;2022-07-19T12:50:33;3.95;;;2.53;;
48813;SDS011;34634;44.108;3.074;2022-07-19T12:53:00;7.70;;;2.60;;
48813;SDS011;34634;44.108;3.074;2022-07-19T12:55:28;4.55;;;2.53;;
48813;SDS011;34634;44.108;3.074;2022-07-19T12:57:55;4.03;;;2.67;;
48813;SDS011;34634;44.108;3.074;2022-07-19T13:00:22;6.13;;;2.60;;
48813;SDS011;34634;44.108;3.074;2022-07-19T13:02:49;3.97;;;2.13;;
48813;SDS011;34634;44.108;3.074;2022-07-19T13:05:16;7.57;;;2.40;;
48813;SDS011;34634;44.108;3.074;2022-07-19T13:07:42;3.03;;;2.53;;
48813;SDS011;34634;44.108;3.074;2022-07-19T13:10:09;4.95;;;2.80;;
48813;SDS011;34634;44.108;3.074;2022-07-19T13:12:35;2.90;;;2.33;;
48813;SDS011;34634;44.108;3.074;2022-07-19T13:15:03;5.85;;;2.70;;
48813;SDS011;34634;44.108;3.074;2022-07-19T13:17:29;3.78;;;2.13;;
48813;SDS011;34634;44.108;3.074;2022-07-19T13:19:56;9.50;;;2.28;;
48813;SDS011;34634;44.108;3.074;2022-07-19T13:22:22;3.30;;;2.35;;
48813;SDS011;34634;44.108;3.074;2022-07-19T13:24:49;5.97;;;2.72;;
48813;SDS011;34634;44.108;3.074;2022-07-19T13:27:15;6.70;;;2.60;;
48813;SDS011;34634;44.108;3.074;2022-07-19T13:29:42;2.83;;;2.30;;
48813;SDS011;34634;44.108;3.074;2022-07-19T13:32:09;4.22;;;2.30;;
48813;SDS011;34634;44.108;3.074;2022-07-19T13:34:37;4.50;;;2.53;;
48813;SDS011;34634;44.108;3.074;2022-07-19T13:37:04;4.93;;;2.22;;
48813;SDS011;34634;44.108;3.074;2022-07-19T13:39:30;11.05;;;2.60;;
48813;SDS011;34634;44.108;3.074;2022-07-19T13:41:57;3.13;;;2.25;;
48813;SDS011;34634;44.108;3.074;2022-07-19T13:44:25;6.75;;;2.55;;
48813;SDS011;34634;44.108;3.074;2022-07-19T13:46:51;7.63;;;2.55;;
48813;SDS011;34634;44.108;3.074;2022-07-19T13:49:18;3.80;;;2.45;;
48813;SDS011;34634;44.108;3.074;2022-07-19T13:51:44;2.33;;;2.10;;
48813;SDS011;34634;44.108;3.074;2022-07-19T13:54:11;6.20;;;3.03;;
48813;SDS011;34634;44.108;3.074;2022-07-19T13:56:38;4.25;;;2.22;;
48813;SDS011;34634;44.108;3.074;2022-07-19T13:59:05;5.80;;;2.58;;
48813;SDS011;34634;44.108;3.074;2022-07-19T14:01:31;2.95;;;2.40;;
48813;SDS011;34634;44.108;3.074;2022-07-19T14:03:57;4.13;;;2.50;;
48813;SDS011;34634;44.108;3.074;2022-07-19T14:06:24;3.10;;;2.42;;
48813;SDS011;34634;44.108;3.074;2022-07-19T14:08:52;12.27;;;2.70;;
48813;SDS011;34634;44.108;3.074;2022-07-19T14:11:18;4.25;;;2.10;;
48813;SDS011;34634;44.108;3.074;2022-07-19T14:13:44;4.35;;;2.15;;
48813;SDS011;34634;44.108;3.074;2022-07-19T14:16:11;2.33;;;2.10;;
48813;SDS011;34634;44.108;3.074;2022-07-19T14:18:37;2.97;;;2.00;;
48813;SDS011;34634;44.108;3.074;2022-07-19T14:21:04;5.70;;;2.40;;
48813;SDS011;34634;44.108;3.074;2022-07-19T14:23:30;3.25;;;2.33;;
48813;SDS011;34634;44.108;3.074;2022-07-19T14:25:57;4.00;;;2.20;;
48813;SDS011;34634;44.108;3.074;2022-07-19T14:28:23;5.45;;;2.25;;
48813;SDS011;34634;44.108;3.074;2022-07-19T14:30:49;3.58;;;2.38;;
48813;SDS011;34634;44.108;3.074;2022-07-19T14:33:16;2.78;;;2.33;;
48813;SDS011;34634;44.108;3.074;2022-07-19T14:35:42;4.82;;;2.38;;
48813;SDS011;34634;44.108;3.074;2022-07-19T14:38:09;6.68;;;2.22;;
48813;SDS011;34634;44.108;3.074;2022-07-19T14:40:35;2.45;;;2.20;;
48813;SDS011;34634;44.108;3.074;2022-07-19T14:43:02;4.35;;;2.10;;
48813;SDS011;34634;44.108;3.074;2022-07-19T14:45:28;7.80;;;2.55;;
48813;SDS011;34634;44.108;3.074;2022-07-19T14:47:55;4.72;;;2.40;;
48813;SDS011;34634;44.108;3.074;2022-07-19T14:50:21;5.65;;;2.20;;
48813;SDS011;34634;44.108;3.074;2022-07-19T14:52:48;2.92;;;2.28;;
48813;SDS011;34634;44.108;3.074;2022-07-19T14:55:14;5.43;;;2.13;;
48813;SDS011;34634;44.108;3.074;2022-07-19T14:57:41;4.95;;;2.28;;
48813;SDS011;34634;44.108;3.074;2022-07-19T15:00:08;4.55;;;1.85;;
48813;SDS011;34634;44.108;3.074;2022-07-19T15:02:37;8.93;;;2.45;;
48813;SDS011;34634;44.108;3.074;2022-07-19T15:05:04;11.10;;;2.42;;
48813;SDS011;34634;44.108;3.074;2022-07-19T15:07:30;3.13;;;2.30;;
48813;SDS011;34634;44.108;3.074;2022-07-19T15:09:56;7.95;;;2.30;;
48813;SDS011;34634;44.108;3.074;2022-07-19T15:12:23;3.88;;;2.05;;
48813;SDS011;34634;44.108;3.074;2022-07-19T15:14:49;6.65;;;2.50;;
48813;SDS011;34634;44.108;3.074;2022-07-19T15:17:16;2.85;;;2.28;;
48813;SDS011;34634;44.108;3.074;2022-07-19T15:19:42;5.82;;;2.22;;
48813;SDS011;34634;44.108;3.074;2022-07-19T15:22:08;3.45;;;2.42;;
48813;SDS011;34634;44.108;3.074;2022-07-19T15:24:35;2.78;;;1.90;;
48813;SDS011;34634;44.108;3.074;2022-07-19T15:27:01;2.85;;;2.13;;
48813;SDS011;34634;44.108;3.074;2022-07-19T15:29:27;7.50;;;2.35;;
48813;SDS011;34634;44.108;3.074;2022-07-19T15:31:54;2.53;;;2.30;;
48813;SDS011;34634;44.108;3.074;2022-07-19T15:34:20;4.60;;;2.30;;
48813;SDS011;34634;44.108;3.074;2022-07-19T15:36:46;5.53;;;2.05;;
48813;SDS011;34634;44.108;3.074;2022-07-19T15:39:13;2.88;;;2.05;;